createdAt,value
2018-11-04T00:00:38.782Z,1022.00
2018-11-04T00:01:38.788Z,1021.99
2018-11-04T00:02:38.764Z,1022.02
2018-11-04T00:03:38.754Z,1021.98
2018-11-04T00:04:38.741Z,1021.97
2018-11-04T00:05:38.737Z,1021.99
2018-11-04T00:06:38.734Z,1021.97
2018-11-04T00:07:38.726Z,1021.92
2018-11-04T00:08:38.707Z,1021.90
2018-11-04T00:09:38.715Z,1021.89
2018-11-04T00:10:38.694Z,1021.88
2018-11-04T00:11:38.691Z,1021.88
2018-11-04T00:12:38.674Z,1021.87
2018-11-04T00:13:38.668Z,1021.84
2018-11-04T00:14:38.658Z,1021.81
2018-11-04T00:15:38.655Z,1021.79
2018-11-04T00:16:38.641Z,1021.77
2018-11-04T00:17:38.633Z,1021.76
2018-11-04T00:18:38.620Z,1021.77
2018-11-04T00:19:38.618Z,1021.73
2018-11-04T00:20:38.608Z,1021.74
2018-11-04T00:21:38.603Z,1021.73
2018-11-04T00:22:38.595Z,1021.70
2018-11-04T00:23:38.581Z,1021.73
2018-11-04T00:24:38.569Z,1021.67
2018-11-04T00:25:38.561Z,1021.71
2018-11-04T00:26:38.557Z,1021.73
2018-11-04T00:27:38.547Z,1021.70
2018-11-04T00:28:38.536Z,1021.66
2018-11-04T00:29:38.538Z,1021.66
2018-11-04T00:30:38.522Z,1021.71
2018-11-04T00:31:38.507Z,1021.68
2018-11-04T00:32:38.505Z,1021.69
2018-11-04T00:33:38.488Z,1021.67
2018-11-04T00:34:38.490Z,1021.64
2018-11-04T00:35:38.506Z,1021.61
2018-11-04T00:36:38.467Z,1021.63
2018-11-04T00:37:38.460Z,1021.56
2018-11-04T00:38:38.446Z,1021.61
2018-11-04T00:39:38.440Z,1021.59
2018-11-04T00:40:38.435Z,1021.54
2018-11-04T00:41:38.423Z,1021.55
2018-11-04T00:42:38.425Z,1021.58
2018-11-04T00:43:38.409Z,1021.57
2018-11-04T00:44:38.400Z,1021.59
2018-11-04T00:45:38.458Z,1021.53
2018-11-04T00:46:38.379Z,1021.57
2018-11-04T00:47:38.377Z,1021.50
2018-11-04T00:48:38.362Z,1021.51
2018-11-04T00:49:38.353Z,1021.45
2018-11-04T00:50:38.354Z,1021.45
2018-11-04T00:51:38.330Z,1021.42
2018-11-04T00:52:38.322Z,1021.43
2018-11-04T00:53:38.318Z,1021.43
2018-11-04T00:54:38.314Z,1021.43
2018-11-04T00:55:39.026Z,1021.38
2018-11-04T00:56:38.292Z,1021.38
2018-11-04T00:57:38.288Z,1021.38
2018-11-04T00:58:38.275Z,1021.34
2018-11-04T00:59:38.265Z,1021.32
2018-11-04T01:00:38.261Z,1021.28
2018-11-04T01:01:38.317Z,1021.27
2018-11-04T01:02:38.242Z,1021.21
2018-11-04T01:03:38.230Z,1021.20
2018-11-04T01:04:38.218Z,1021.20
2018-11-04T01:05:38.213Z,1021.23
2018-11-04T01:06:38.240Z,1021.16
2018-11-04T01:07:38.197Z,1021.19
2018-11-04T01:08:38.186Z,1021.19
2018-11-04T01:09:38.176Z,1021.15
2018-11-04T01:10:38.171Z,1021.13
2018-11-04T01:11:38.160Z,1021.12
2018-11-04T01:12:38.150Z,1021.10
2018-11-04T01:13:38.144Z,1021.05
2018-11-04T01:14:38.129Z,1021.06
2018-11-04T01:15:38.126Z,1021.03
2018-11-04T01:16:38.118Z,1021.02
2018-11-04T01:17:38.108Z,1021.03
2018-11-04T01:18:38.102Z,1021.03
2018-11-04T01:19:38.090Z,1021.04
2018-11-04T01:20:38.083Z,1021.03
2018-11-04T01:21:38.069Z,1021.01
2018-11-04T01:22:38.065Z,1020.95
2018-11-04T01:23:38.055Z,1020.98
2018-11-04T01:24:38.081Z,1020.95
2018-11-04T01:25:38.041Z,1020.93
2018-11-04T01:26:38.030Z,1020.91
2018-11-04T01:27:38.020Z,1020.94
2018-11-04T01:28:38.010Z,1020.91
2018-11-04T01:29:38.003Z,1020.92
2018-11-04T01:30:37.994Z,1020.91
2018-11-04T01:31:37.986Z,1020.91
2018-11-04T01:32:37.976Z,1020.92
2018-11-04T01:33:37.965Z,1020.90
2018-11-04T01:34:37.959Z,1020.87
2018-11-04T01:35:37.952Z,1020.90
2018-11-04T01:36:37.941Z,1020.85
2018-11-04T01:37:37.937Z,1020.82
2018-11-04T01:38:37.925Z,1020.84
2018-11-04T01:39:37.916Z,1020.84
2018-11-04T01:40:37.906Z,1020.81
2018-11-04T01:41:37.899Z,1020.80
2018-11-04T01:42:37.895Z,1020.77
2018-11-04T01:43:37.883Z,1020.79
2018-11-04T01:44:37.873Z,1020.80
2018-11-04T01:45:37.867Z,1020.79
2018-11-04T01:46:37.857Z,1020.74
2018-11-04T01:47:37.859Z,1020.73
2018-11-04T01:48:37.839Z,1020.72
2018-11-04T01:49:37.832Z,1020.71
2018-11-04T01:50:37.820Z,1020.70
2018-11-04T01:51:37.813Z,1020.68
2018-11-04T01:52:37.806Z,1020.69
2018-11-04T01:53:37.795Z,1020.72
2018-11-04T01:54:37.787Z,1020.74
2018-11-04T01:55:37.782Z,1020.69
2018-11-04T01:56:37.772Z,1020.70
2018-11-04T01:57:37.762Z,1020.67
2018-11-04T01:58:37.754Z,1020.62
2018-11-04T01:59:38.536Z,1020.65
2018-11-04T02:00:37.737Z,1020.58
2018-11-04T02:01:37.731Z,1020.57
2018-11-04T02:02:37.721Z,1020.57
2018-11-04T02:03:37.715Z,1020.58
2018-11-04T02:04:37.700Z,1020.58
2018-11-04T02:05:37.697Z,1020.59
2018-11-04T02:06:37.686Z,1020.55
2018-11-04T02:07:37.677Z,1020.56
2018-11-04T02:08:37.668Z,1020.50
2018-11-04T02:09:37.660Z,1020.48
2018-11-04T02:10:37.655Z,1020.51
2018-11-04T02:11:37.642Z,1020.52
2018-11-04T02:12:37.637Z,1020.49
2018-11-04T02:13:37.627Z,1020.48
2018-11-04T02:14:37.620Z,1020.47
2018-11-04T02:15:37.613Z,1020.41
2018-11-04T02:16:37.601Z,1020.42
2018-11-04T02:17:37.596Z,1020.40
2018-11-04T02:18:37.584Z,1020.38
2018-11-04T02:19:37.579Z,1020.38
2018-11-04T02:20:37.569Z,1020.37
2018-11-04T02:21:37.563Z,1020.38
2018-11-04T02:22:37.567Z,1020.40
2018-11-04T02:23:37.545Z,1020.36
2018-11-04T02:24:37.538Z,1020.33
2018-11-04T02:25:37.528Z,1020.32
2018-11-04T02:26:37.520Z,1020.28
2018-11-04T02:27:37.510Z,1020.27
2018-11-04T02:28:37.501Z,1020.29
2018-11-04T02:29:37.494Z,1020.27
2018-11-04T02:30:38.125Z,1020.27
2018-11-04T02:31:37.478Z,1020.25
2018-11-04T02:32:37.469Z,1020.23
2018-11-04T02:33:37.466Z,1020.16
2018-11-04T02:34:37.452Z,1020.18
2018-11-04T02:35:37.445Z,1020.17
2018-11-04T02:36:37.436Z,1020.17
2018-11-04T02:37:37.431Z,1020.16
2018-11-04T02:38:37.440Z,1020.13
2018-11-04T02:39:38.121Z,1020.11
2018-11-04T02:40:37.407Z,1020.10
2018-11-04T02:41:37.398Z,1020.10
2018-11-04T02:42:37.390Z,1020.10
2018-11-04T02:43:37.382Z,1020.10
2018-11-04T02:44:37.373Z,1020.07
2018-11-04T02:45:37.366Z,1020.06
2018-11-04T02:46:37.357Z,1020.09
2018-11-04T02:47:37.352Z,1020.05
2018-11-04T02:48:37.341Z,1020.03
2018-11-04T02:49:37.335Z,1020.07
2018-11-04T02:50:37.335Z,1020.06
2018-11-04T02:51:37.322Z,1020.03
2018-11-04T02:52:37.312Z,1020.05
2018-11-04T02:53:37.303Z,1020.03
2018-11-04T02:54:37.312Z,1020.06
2018-11-04T02:55:37.286Z,1020.06
2018-11-04T02:56:37.276Z,1020.04
2018-11-04T02:57:37.271Z,1020.02
2018-11-04T02:58:37.269Z,1020.00
2018-11-04T02:59:37.257Z,1020.04
2018-11-04T03:00:37.247Z,1020.04
2018-11-04T03:01:37.239Z,1020.02
2018-11-04T03:02:37.231Z,1020.01
2018-11-04T03:03:37.224Z,1020.01
2018-11-04T03:04:37.216Z,1020.01
2018-11-04T03:05:37.207Z,1019.97
2018-11-04T03:06:37.201Z,1019.93
2018-11-04T03:07:37.194Z,1019.93
2018-11-04T03:08:37.186Z,1019.98
2018-11-04T03:09:37.177Z,1019.96
2018-11-04T03:10:37.170Z,1019.89
2018-11-04T03:11:37.165Z,1019.91
2018-11-04T03:12:37.157Z,1019.89
2018-11-04T03:13:37.145Z,1019.88
2018-11-04T03:14:37.137Z,1019.84
2018-11-04T03:15:37.133Z,1019.78
2018-11-04T03:16:37.122Z,1019.79
2018-11-04T03:17:37.114Z,1019.81
2018-11-04T03:18:37.106Z,1019.78
2018-11-04T03:19:37.099Z,1019.78
2018-11-04T03:20:37.097Z,1019.77
2018-11-04T03:21:37.081Z,1019.74
2018-11-04T03:22:37.080Z,1019.71
2018-11-04T03:23:37.070Z,1019.70
2018-11-04T03:24:37.128Z,1019.70
2018-11-04T03:25:37.060Z,1019.70
2018-11-04T03:26:37.044Z,1019.69
2018-11-04T03:27:37.034Z,1019.67
2018-11-04T03:28:37.047Z,1019.63
2018-11-04T03:29:37.020Z,1019.61
2018-11-04T03:30:37.012Z,1019.60
2018-11-04T03:31:37.007Z,1019.62
2018-11-04T03:32:36.998Z,1019.58
2018-11-04T03:33:36.992Z,1019.59
2018-11-04T03:34:36.983Z,1019.60
2018-11-04T03:35:36.973Z,1019.55
2018-11-04T03:36:36.961Z,1019.51
2018-11-04T03:37:36.960Z,1019.52
2018-11-04T03:38:36.950Z,1019.49
2018-11-04T03:39:36.953Z,1019.49
2018-11-04T03:40:36.943Z,1019.47
2018-11-04T03:41:36.929Z,1019.48
2018-11-04T03:42:36.925Z,1019.48
2018-11-04T03:43:36.914Z,1019.49
2018-11-04T03:44:36.909Z,1019.46
2018-11-04T03:45:36.901Z,1019.47
2018-11-04T03:46:36.891Z,1019.45
2018-11-04T03:47:36.883Z,1019.44
2018-11-04T03:48:36.875Z,1019.43
2018-11-04T03:49:36.867Z,1019.43
2018-11-04T03:50:36.860Z,1019.43
2018-11-04T03:51:36.853Z,1019.41
2018-11-04T03:52:36.843Z,1019.39
2018-11-04T03:53:36.838Z,1019.41
2018-11-04T03:54:36.829Z,1019.36
2018-11-04T03:55:36.824Z,1019.36
2018-11-04T03:56:36.813Z,1019.38
2018-11-04T03:57:36.805Z,1019.32
2018-11-04T03:58:36.804Z,1019.35
2018-11-04T03:59:36.790Z,1019.37
2018-11-04T04:00:36.782Z,1019.34
2018-11-04T04:01:36.779Z,1019.34
2018-11-04T04:02:36.772Z,1019.32
2018-11-04T04:03:37.566Z,1019.32
2018-11-04T04:04:36.753Z,1019.34
2018-11-04T04:05:36.745Z,1019.30
2018-11-04T04:06:36.740Z,1019.30
2018-11-04T04:07:36.727Z,1019.28
2018-11-04T04:08:36.722Z,1019.28
2018-11-04T04:09:36.714Z,1019.26
2018-11-04T04:10:36.711Z,1019.21
2018-11-04T04:11:36.705Z,1019.24
2018-11-04T04:12:36.695Z,1019.20
2018-11-04T04:13:36.681Z,1019.19
2018-11-04T04:14:36.679Z,1019.21
2018-11-04T04:15:36.669Z,1019.20
2018-11-04T04:16:36.660Z,1019.21
2018-11-04T04:17:36.655Z,1019.16
2018-11-04T04:18:36.646Z,1019.15
2018-11-04T04:19:36.640Z,1019.12
2018-11-04T04:20:36.629Z,1019.11
2018-11-04T04:21:36.632Z,1019.15
2018-11-04T04:22:36.620Z,1019.11
2018-11-04T04:23:36.607Z,1019.08
2018-11-04T04:24:36.596Z,1019.08
2018-11-04T04:25:36.590Z,1019.03
2018-11-04T04:26:36.584Z,1019.02
2018-11-04T04:27:36.579Z,1019.00
2018-11-04T04:28:36.568Z,1018.98
2018-11-04T04:29:36.569Z,1018.92
2018-11-04T04:30:36.556Z,1018.89
2018-11-04T04:31:36.547Z,1018.93
2018-11-04T04:32:36.550Z,1018.92
2018-11-04T04:33:36.532Z,1018.94
2018-11-04T04:34:36.527Z,1018.93
2018-11-04T04:35:36.517Z,1018.96
2018-11-04T04:36:36.516Z,1018.93
2018-11-04T04:37:36.505Z,1018.94
2018-11-04T04:38:36.494Z,1018.88
2018-11-04T04:39:36.490Z,1018.91
2018-11-04T04:40:36.500Z,1018.88
2018-11-04T04:41:36.479Z,1018.89
2018-11-04T04:42:36.465Z,1018.90
2018-11-04T04:43:36.460Z,1018.90
2018-11-04T04:44:36.453Z,1018.87
2018-11-04T04:45:36.443Z,1018.90
2018-11-04T04:46:36.438Z,1018.89
2018-11-04T04:47:36.431Z,1018.90
2018-11-04T04:48:36.423Z,1018.88
2018-11-04T04:49:36.418Z,1018.87
2018-11-04T04:50:36.406Z,1018.84
2018-11-04T04:51:36.441Z,1018.86
2018-11-04T04:52:36.391Z,1018.83
2018-11-04T04:53:36.450Z,1018.83
2018-11-04T04:54:36.377Z,1018.83
2018-11-04T04:55:36.371Z,1018.85
2018-11-04T04:56:36.362Z,1018.81
2018-11-04T04:57:36.356Z,1018.79
2018-11-04T04:58:36.348Z,1018.79
2018-11-04T04:59:36.345Z,1018.75
2018-11-04T05:00:36.333Z,1018.75
2018-11-04T05:01:36.324Z,1018.75
2018-11-04T05:02:36.319Z,1018.73
2018-11-04T05:03:36.314Z,1018.71
2018-11-04T05:04:36.304Z,1018.71
2018-11-04T05:05:36.303Z,1018.68
2018-11-04T05:06:36.293Z,1018.67
2018-11-04T05:07:36.283Z,1018.67
2018-11-04T05:08:36.274Z,1018.66
2018-11-04T05:09:36.269Z,1018.65
2018-11-04T05:10:36.263Z,1018.67
2018-11-04T05:11:36.254Z,1018.64
2018-11-04T05:12:36.250Z,1018.67
2018-11-04T05:13:36.244Z,1018.66
2018-11-04T05:14:36.232Z,1018.67
2018-11-04T05:15:36.226Z,1018.67
2018-11-04T05:16:36.274Z,1018.65
2018-11-04T05:17:36.211Z,1018.67
2018-11-04T05:18:36.204Z,1018.67
2018-11-04T05:19:36.199Z,1018.65
2018-11-04T05:20:36.191Z,1018.59
2018-11-04T05:21:36.182Z,1018.58
2018-11-04T05:22:36.177Z,1018.55
2018-11-04T05:23:36.167Z,1018.54
2018-11-04T05:24:36.162Z,1018.56
2018-11-04T05:25:36.155Z,1018.54
2018-11-04T05:26:36.149Z,1018.50
2018-11-04T05:27:36.147Z,1018.52
2018-11-04T05:28:36.132Z,1018.50
2018-11-04T05:29:36.127Z,1018.50
2018-11-04T05:30:36.120Z,1018.48
2018-11-04T05:31:36.113Z,1018.48
2018-11-04T05:32:36.105Z,1018.50
2018-11-04T05:33:36.097Z,1018.52
2018-11-04T05:34:36.087Z,1018.50
2018-11-04T05:35:36.081Z,1018.53
2018-11-04T05:36:36.076Z,1018.51
2018-11-04T05:37:36.068Z,1018.51
2018-11-04T05:38:36.062Z,1018.55
2018-11-04T05:39:36.055Z,1018.53
2018-11-04T05:40:36.044Z,1018.53
2018-11-04T05:41:36.042Z,1018.52
2018-11-04T05:42:36.036Z,1018.53
2018-11-04T05:43:36.029Z,1018.52
2018-11-04T05:44:36.020Z,1018.52
2018-11-04T05:45:36.014Z,1018.54
2018-11-04T05:46:36.005Z,1018.55
2018-11-04T05:47:35.999Z,1018.58
2018-11-04T05:48:35.991Z,1018.57
2018-11-04T05:49:35.985Z,1018.56
2018-11-04T05:50:35.979Z,1018.58
2018-11-04T05:51:35.971Z,1018.53
2018-11-04T05:52:35.969Z,1018.55
2018-11-04T05:53:35.953Z,1018.53
2018-11-04T05:54:35.952Z,1018.58
2018-11-04T05:55:35.942Z,1018.54
2018-11-04T05:56:35.946Z,1018.54
2018-11-04T05:57:35.926Z,1018.57
2018-11-04T05:58:35.922Z,1018.58
2018-11-04T05:59:35.914Z,1018.59
2018-11-04T06:00:35.908Z,1018.59
2018-11-04T06:01:35.900Z,1018.62
2018-11-04T06:02:35.891Z,1018.60
2018-11-04T06:03:35.888Z,1018.60
2018-11-04T06:04:35.876Z,1018.57
2018-11-04T06:05:35.872Z,1018.59
2018-11-04T06:06:35.864Z,1018.60
2018-11-04T06:07:35.859Z,1018.64
2018-11-04T06:08:35.851Z,1018.66
2018-11-04T06:09:35.844Z,1018.65
2018-11-04T06:10:35.840Z,1018.66
2018-11-04T06:11:35.835Z,1018.70
2018-11-04T06:12:35.821Z,1018.66
2018-11-04T06:13:35.816Z,1018.69
2018-11-04T06:14:35.824Z,1018.71
2018-11-04T06:15:35.802Z,1018.73
2018-11-04T06:16:35.796Z,1018.76
2018-11-04T06:17:35.791Z,1018.75
2018-11-04T06:18:35.781Z,1018.74
2018-11-04T06:19:35.817Z,1018.76
2018-11-04T06:20:35.767Z,1018.75
2018-11-04T06:21:35.761Z,1018.82
2018-11-04T06:22:35.753Z,1018.81
2018-11-04T06:23:35.751Z,1018.87
2018-11-04T06:24:35.738Z,1018.87
2018-11-04T06:25:35.732Z,1018.91
2018-11-04T06:26:35.729Z,1018.90
2018-11-04T06:27:35.718Z,1018.90
2018-11-04T06:28:35.713Z,1018.89
2018-11-04T06:29:35.703Z,1018.87
2018-11-04T06:30:35.700Z,1018.87
2018-11-04T06:31:35.690Z,1018.86
2018-11-04T06:32:35.682Z,1018.87
2018-11-04T06:33:35.676Z,1018.83
2018-11-04T06:34:35.715Z,1018.82
2018-11-04T06:35:35.665Z,1018.85
2018-11-04T06:36:35.653Z,1018.79
2018-11-04T06:37:35.648Z,1018.81
2018-11-04T06:38:35.643Z,1018.80
2018-11-04T06:39:35.633Z,1018.79
2018-11-04T06:40:35.625Z,1018.76
2018-11-04T06:41:35.627Z,1018.77
2018-11-04T06:42:35.612Z,1018.74
2018-11-04T06:43:35.606Z,1018.76
2018-11-04T06:44:35.598Z,1018.70
2018-11-04T06:45:35.591Z,1018.75
2018-11-04T06:46:35.582Z,1018.72
2018-11-04T06:47:35.677Z,1018.73
2018-11-04T06:48:35.572Z,1018.72
2018-11-04T06:49:35.564Z,1018.72
2018-11-04T06:50:35.558Z,1018.71
2018-11-04T06:51:35.560Z,1018.69
2018-11-04T06:52:35.544Z,1018.70
2018-11-04T06:53:35.534Z,1018.66
2018-11-04T06:54:35.530Z,1018.74
2018-11-04T06:55:35.523Z,1018.75
2018-11-04T06:56:35.514Z,1018.74
2018-11-04T06:57:35.510Z,1018.71
2018-11-04T06:58:35.502Z,1018.71
2018-11-04T06:59:35.492Z,1018.74
2018-11-04T07:00:35.486Z,1018.72
2018-11-04T07:01:35.480Z,1018.68
2018-11-04T07:02:35.479Z,1018.69
2018-11-04T07:03:35.467Z,1018.68
2018-11-04T07:04:36.176Z,1018.67
2018-11-04T07:05:35.452Z,1018.67
2018-11-04T07:06:35.446Z,1018.65
2018-11-04T07:07:35.442Z,1018.68
2018-11-04T07:08:35.435Z,1018.66
2018-11-04T07:09:35.428Z,1018.66
2018-11-04T07:10:35.419Z,1018.65
2018-11-04T07:11:35.411Z,1018.62
2018-11-04T07:12:35.405Z,1018.64
2018-11-04T07:13:35.398Z,1018.64
2018-11-04T07:14:35.391Z,1018.61
2018-11-04T07:15:35.384Z,1018.61
2018-11-04T07:16:35.376Z,1018.61
2018-11-04T07:17:35.368Z,1018.60
2018-11-04T07:18:35.366Z,1018.61
2018-11-04T07:19:35.357Z,1018.60
2018-11-04T07:20:35.350Z,1018.64
2018-11-04T07:21:35.342Z,1018.61
2018-11-04T07:22:35.338Z,1018.63
2018-11-04T07:23:35.329Z,1018.62
2018-11-04T07:24:35.323Z,1018.63
2018-11-04T07:25:35.323Z,1018.63
2018-11-04T07:26:35.309Z,1018.59
2018-11-04T07:27:35.303Z,1018.60
2018-11-04T07:28:35.294Z,1018.59
2018-11-04T07:29:35.288Z,1018.63
2018-11-04T07:30:35.284Z,1018.60
2018-11-04T07:31:35.277Z,1018.65
2018-11-04T07:32:35.270Z,1018.62
2018-11-04T07:33:35.261Z,1018.65
2018-11-04T07:34:35.255Z,1018.61
2018-11-04T07:35:35.251Z,1018.59
2018-11-04T07:36:35.243Z,1018.61
2018-11-04T07:37:35.235Z,1018.59
2018-11-04T07:38:35.227Z,1018.58
2018-11-04T07:39:35.223Z,1018.61
2018-11-04T07:40:35.213Z,1018.56
2018-11-04T07:41:35.230Z,1018.60
2018-11-04T07:42:35.197Z,1018.57
2018-11-04T07:43:35.201Z,1018.58
2018-11-04T07:44:35.190Z,1018.54
2018-11-04T07:45:35.183Z,1018.56
2018-11-04T07:46:35.174Z,1018.56
2018-11-04T07:47:36.111Z,1018.54
2018-11-04T07:48:35.159Z,1018.53
2018-11-04T07:49:35.156Z,1018.50
2018-11-04T07:50:35.229Z,1018.54
2018-11-04T07:51:35.221Z,1018.52
2018-11-04T07:52:35.136Z,1018.53
2018-11-04T07:53:35.133Z,1018.51
2018-11-04T07:54:35.122Z,1018.50
2018-11-04T07:55:35.117Z,1018.48
2018-11-04T07:56:35.108Z,1018.45
2018-11-04T07:57:35.104Z,1018.43
2018-11-04T07:58:35.096Z,1018.48
2018-11-04T07:59:35.090Z,1018.40
2018-11-04T08:00:35.083Z,1018.40
2018-11-04T08:01:35.077Z,1018.39
2018-11-04T08:02:35.069Z,1018.39
2018-11-04T08:03:35.123Z,1018.41
2018-11-04T08:04:35.056Z,1018.36
2018-11-04T08:05:35.051Z,1018.38
2018-11-04T08:06:35.057Z,1018.34
2018-11-04T08:07:35.039Z,1018.33
2018-11-04T08:08:35.029Z,1018.32
2018-11-04T08:09:35.026Z,1018.31
2018-11-04T08:10:35.017Z,1018.31
2018-11-04T08:11:35.012Z,1018.29
2018-11-04T08:12:35.004Z,1018.33
2018-11-04T08:13:35.095Z,1018.34
2018-11-04T08:14:34.987Z,1018.31
2018-11-04T08:15:34.986Z,1018.30
2018-11-04T08:16:34.977Z,1018.26
2018-11-04T08:17:34.972Z,1018.31
2018-11-04T08:18:34.966Z,1018.26
2018-11-04T08:19:34.960Z,1018.27
2018-11-04T08:20:34.951Z,1018.29
2018-11-04T08:21:34.947Z,1018.25
2018-11-04T08:22:34.938Z,1018.26
2018-11-04T08:23:34.932Z,1018.25
2018-11-04T08:24:34.924Z,1018.23
2018-11-04T08:25:34.920Z,1018.22
2018-11-04T08:26:34.914Z,1018.18
2018-11-04T08:27:34.910Z,1018.17
2018-11-04T08:28:34.901Z,1018.15
2018-11-04T08:29:34.893Z,1018.09
2018-11-04T08:30:34.891Z,1018.12
2018-11-04T08:31:34.881Z,1018.14
2018-11-04T08:32:34.892Z,1018.12
2018-11-04T08:33:34.868Z,1018.12
2018-11-04T08:34:34.863Z,1018.10
2018-11-04T08:35:34.856Z,1018.11
2018-11-04T08:36:35.698Z,1018.12
2018-11-04T08:37:34.844Z,1018.06
2018-11-04T08:38:34.835Z,1018.06
2018-11-04T08:39:34.867Z,1018.07
2018-11-04T08:40:34.825Z,1018.03
2018-11-04T08:41:34.822Z,1018.01
2018-11-04T08:42:34.814Z,1018.04
2018-11-04T08:43:34.807Z,1018.06
2018-11-04T08:44:35.698Z,1018.04
2018-11-04T08:45:34.810Z,1018.01
2018-11-04T08:46:34.788Z,1017.95
2018-11-04T08:47:34.782Z,1017.96
2018-11-04T08:48:34.773Z,1017.95
2018-11-04T08:49:34.771Z,1017.90
2018-11-04T08:50:34.768Z,1017.91
2018-11-04T08:51:34.751Z,1017.87
2018-11-04T08:52:34.828Z,1017.85
2018-11-04T08:53:34.744Z,1017.91
2018-11-04T08:54:34.739Z,1017.85
2018-11-04T08:55:34.728Z,1017.85
2018-11-04T08:56:34.767Z,1017.83
2018-11-04T08:57:34.719Z,1017.85
2018-11-04T08:58:34.718Z,1017.87
2018-11-04T08:59:34.707Z,1017.85
2018-11-04T09:00:34.705Z,1017.85
2018-11-04T09:01:34.693Z,1017.83
2018-11-04T09:02:34.689Z,1017.83
2018-11-04T09:03:34.682Z,1017.85
2018-11-04T09:04:34.674Z,1017.81
2018-11-04T09:05:34.672Z,1017.78
2018-11-04T09:06:34.740Z,1017.75
2018-11-04T09:07:34.660Z,1017.77
2018-11-04T09:08:34.654Z,1017.77
2018-11-04T09:09:34.645Z,1017.75
2018-11-04T09:10:34.637Z,1017.79
2018-11-04T09:11:34.631Z,1017.72
2018-11-04T09:12:34.624Z,1017.72
2018-11-04T09:13:34.620Z,1017.71
2018-11-04T09:14:34.614Z,1017.72
2018-11-04T09:15:34.606Z,1017.74
2018-11-04T09:16:34.598Z,1017.72
2018-11-04T09:17:34.594Z,1017.72
2018-11-04T09:18:34.590Z,1017.72
2018-11-04T09:19:34.650Z,1017.69
2018-11-04T09:20:34.646Z,1017.67
2018-11-04T09:21:34.688Z,1017.68
2018-11-04T09:22:34.607Z,1017.67
2018-11-04T09:23:34.631Z,1017.65
2018-11-04T09:24:34.556Z,1017.64
2018-11-04T09:25:34.547Z,1017.63
2018-11-04T09:26:34.538Z,1017.67
2018-11-04T09:27:34.538Z,1017.64
2018-11-04T09:28:34.529Z,1017.66
2018-11-04T09:29:34.521Z,1017.65
2018-11-04T09:30:34.516Z,1017.67
2018-11-04T09:31:34.511Z,1017.67
2018-11-04T09:32:34.506Z,1017.66
2018-11-04T09:33:34.496Z,1017.70
2018-11-04T09:34:34.543Z,1017.69
2018-11-04T09:35:34.659Z,1017.70
2018-11-04T09:36:34.629Z,1017.63
2018-11-04T09:37:34.473Z,1017.64
2018-11-04T09:38:34.468Z,1017.62
2018-11-04T09:39:34.458Z,1017.64
2018-11-04T09:40:34.481Z,1017.62
2018-11-04T09:41:34.451Z,1017.57
2018-11-04T09:42:34.444Z,1017.56
2018-11-04T09:43:34.435Z,1017.54
2018-11-04T09:44:34.432Z,1017.54
2018-11-04T09:45:34.429Z,1017.51
2018-11-04T09:46:34.421Z,1017.50
2018-11-04T09:47:34.414Z,1017.54
2018-11-04T09:48:34.415Z,1017.58
2018-11-04T09:49:34.403Z,1017.53
2018-11-04T09:50:34.399Z,1017.52
2018-11-04T09:51:34.390Z,1017.51
2018-11-04T09:52:34.386Z,1017.52
2018-11-04T09:53:34.378Z,1017.53
2018-11-04T09:54:34.372Z,1017.57
2018-11-04T09:55:34.371Z,1017.57
2018-11-04T09:56:34.445Z,1017.58
2018-11-04T09:57:34.355Z,1017.56
2018-11-04T09:58:34.352Z,1017.54
2018-11-04T09:59:34.344Z,1017.52
2018-11-04T10:00:34.338Z,1017.52
2018-11-04T10:01:34.333Z,1017.47
2018-11-04T10:02:34.330Z,1017.44
2018-11-04T10:03:34.322Z,1017.46
2018-11-04T10:04:34.317Z,1017.45
2018-11-04T10:05:34.310Z,1017.49
2018-11-04T10:06:34.303Z,1017.49
2018-11-04T10:07:34.299Z,1017.46
2018-11-04T10:08:34.290Z,1017.45
2018-11-04T10:09:34.287Z,1017.49
2018-11-04T10:10:34.282Z,1017.46
2018-11-04T10:11:34.277Z,1017.46
2018-11-04T10:12:34.270Z,1017.47
2018-11-04T10:13:34.271Z,1017.46
2018-11-04T10:14:34.259Z,1017.44
2018-11-04T10:15:34.258Z,1017.40
2018-11-04T10:16:34.247Z,1017.40
2018-11-04T10:17:34.242Z,1017.37
2018-11-04T10:18:34.240Z,1017.33
2018-11-04T10:19:34.409Z,1017.32
2018-11-04T10:20:34.540Z,1017.31
2018-11-04T10:21:34.223Z,1017.31
2018-11-04T10:22:34.215Z,1017.30
2018-11-04T10:23:34.208Z,1017.34
2018-11-04T10:24:34.203Z,1017.30
2018-11-04T10:25:34.197Z,1017.32
2018-11-04T10:26:34.194Z,1017.31
2018-11-04T10:27:34.187Z,1017.32
2018-11-04T10:28:34.179Z,1017.28
2018-11-04T10:29:34.176Z,1017.28
2018-11-04T10:30:34.175Z,1017.26
2018-11-04T10:31:34.168Z,1017.25
2018-11-04T10:32:34.158Z,1017.25
2018-11-04T10:33:34.154Z,1017.25
2018-11-04T10:34:34.147Z,1017.23
2018-11-04T10:35:34.141Z,1017.23
2018-11-04T10:36:34.135Z,1017.22
2018-11-04T10:37:34.131Z,1017.11
2018-11-04T10:38:34.126Z,1017.13
2018-11-04T10:39:34.119Z,1017.10
2018-11-04T10:40:34.113Z,1017.04
2018-11-04T10:41:34.108Z,1017.09
2018-11-04T10:42:34.102Z,1017.05
2018-11-04T10:43:34.098Z,1017.04
2018-11-04T10:44:34.094Z,1017.01
2018-11-04T10:45:34.091Z,1017.00
2018-11-04T10:46:34.083Z,1016.97
2018-11-04T10:47:34.076Z,1016.94
2018-11-04T10:48:34.069Z,1016.89
2018-11-04T10:49:34.113Z,1016.89
2018-11-04T10:50:34.066Z,1016.89
2018-11-04T10:51:34.123Z,1016.89
2018-11-04T10:52:34.053Z,1016.90
2018-11-04T10:53:34.043Z,1016.86
2018-11-04T10:54:34.041Z,1016.84
2018-11-04T10:55:34.049Z,1016.79
2018-11-04T10:56:34.029Z,1016.80
2018-11-04T10:57:34.023Z,1016.77
2018-11-04T10:58:34.019Z,1016.77
2018-11-04T10:59:34.017Z,1016.74
2018-11-04T11:00:34.007Z,1016.66
2018-11-04T11:01:34.003Z,1016.65
2018-11-04T11:02:33.997Z,1016.64
2018-11-04T11:03:33.994Z,1016.65
2018-11-04T11:04:34.085Z,1016.63
2018-11-04T11:05:33.982Z,1016.62
2018-11-04T11:06:33.975Z,1016.64
2018-11-04T11:07:33.977Z,1016.64
2018-11-04T11:08:33.967Z,1016.63
2018-11-04T11:09:33.984Z,1016.58
2018-11-04T11:10:33.955Z,1016.61
2018-11-04T11:11:33.949Z,1016.62
2018-11-04T11:12:33.944Z,1016.57
2018-11-04T11:13:33.936Z,1016.56
2018-11-04T11:14:33.932Z,1016.60
2018-11-04T11:15:33.940Z,1016.59
2018-11-04T11:16:33.921Z,1016.57
2018-11-04T11:17:33.916Z,1016.54
2018-11-04T11:18:33.912Z,1016.56
2018-11-04T11:19:33.907Z,1016.53
2018-11-04T11:20:33.901Z,1016.52
2018-11-04T11:21:33.897Z,1016.51
2018-11-04T11:22:33.967Z,1016.51
2018-11-04T11:23:33.885Z,1016.47
2018-11-04T11:24:33.896Z,1016.46
2018-11-04T11:25:33.877Z,1016.46
2018-11-04T11:26:33.870Z,1016.48
2018-11-04T11:27:33.865Z,1016.48
2018-11-04T11:28:33.879Z,1016.46
2018-11-04T11:29:33.855Z,1016.38
2018-11-04T11:30:33.851Z,1016.36
2018-11-04T11:31:33.846Z,1016.37
2018-11-04T11:32:33.837Z,1016.36
2018-11-04T11:33:33.832Z,1016.39
2018-11-04T11:34:33.831Z,1016.34
2018-11-04T11:35:33.825Z,1016.38
2018-11-04T11:36:33.819Z,1016.37
2018-11-04T11:37:33.898Z,1016.36
2018-11-04T11:38:33.810Z,1016.32
2018-11-04T11:39:33.804Z,1016.29
2018-11-04T11:40:33.843Z,1016.30
2018-11-04T11:41:33.790Z,1016.25
2018-11-04T11:42:33.790Z,1016.22
2018-11-04T11:43:33.783Z,1016.18
2018-11-04T11:44:33.803Z,1016.20
2018-11-04T11:45:33.773Z,1016.18
2018-11-04T11:46:33.799Z,1016.15
2018-11-04T11:47:33.762Z,1016.15
2018-11-04T11:48:33.755Z,1016.12
2018-11-04T11:49:33.749Z,1016.12
2018-11-04T11:50:33.746Z,1016.13
2018-11-04T11:51:33.744Z,1016.17
2018-11-04T11:52:33.812Z,1016.17
2018-11-04T11:53:33.730Z,1016.13
2018-11-04T11:54:33.726Z,1016.13
2018-11-04T11:55:33.718Z,1016.03
2018-11-04T11:56:33.712Z,1016.05
2018-11-04T11:57:33.706Z,1015.99
2018-11-04T11:58:33.704Z,1015.99
2018-11-04T11:59:33.700Z,1015.96
2018-11-04T12:00:33.690Z,1015.96
2018-11-04T12:01:35.240Z,1015.94
2018-11-04T12:02:33.683Z,1015.96
2018-11-04T12:03:33.678Z,1015.99
2018-11-04T12:04:33.673Z,1015.97
2018-11-04T12:05:33.666Z,1015.97